MYJ weather

Matsuyama Airport
Matsuyama, Ehime Prefecture, Japan

Public forecast

Using degrees Celsius for public forecast. Weather courtesy of forecast.io.

Current aviation weather report (METAR) for Matsuyama Airport

Retrieved 2019/11/14 12:00 UTC (56 minutes ago):

RJOM 141200Z 35009KT 9999 FEW030 11/02 Q1020

Aviation forecast (TAF) for Matsuyama Airport

Retrieved 2019/11/14 12:30 UTC (26 minutes ago):

TAF RJOM 141106Z 1412/1518 36012KT 9999 FEW030 BECMG 1417/1419 12007KT BECMG 1500/1503 29006KT BECMG 1509/1512 12009KT